Time;durP1;ratioP1;P1;durP2;ratioP2;P2;SDS_P1;SDS_P2;PMS_P1;PMS_P2;Temp;Humidity;BMP_temperature;BMP_pressure;BME280_temperature;BME280_humidity;BME280_pressure;Samples;Min_cycle;Max_cycle;Signal;HPM_P1;HPM_P2
2023/10/19 00:00:33;;;;;;;11.65;7.80;;;;;;;14.15;100.00;98462.22;8378986;28;20040;-58
2023/10/19 00:04:35;;;;;;;13.73;8.82;;;;;;;14.04;100.00;98461.00;8374410;28;20402;-59
2023/10/19 00:08:40;;;;;;;13.98;9.13;;;;;;;13.94;100.00;98460.63;8378107;28;20404;-64
2023/10/19 00:12:41;;;;;;;15.00;8.95;;;;;;;14.01;100.00;98456.00;8377052;28;20039;-63
2023/10/19 00:16:49;;;;;;;13.15;8.90;;;;;;;14.12;100.00;98458.03;8375258;28;20512;-64
2023/10/19 00:20:53;;;;;;;15.07;9.32;;;;;;;14.14;100.00;98461.38;8373991;28;20124;-65
2023/10/19 00:24:54;;;;;;;12.65;9.35;;;;;;;14.11;100.00;98459.09;8378505;28;20525;-64
2023/10/19 00:28:55;;;;;;;15.07;8.27;;;;;;;14.14;100.00;98449.66;8374401;28;20398;-61
2023/10/19 00:32:56;;;;;;;13.93;9.35;;;;;;;14.16;100.00;98445.72;8378099;28;20045;-61
2023/10/19 00:36:59;;;;;;;13.43;9.20;;;;;;;14.17;100.00;98444.66;8368727;28;20036;-61
2023/10/19 00:41:05;;;;;;;13.45;8.07;;;;;;;14.28;100.00;98452.19;8375385;28;20115;-61
2023/10/19 00:45:07;;;;;;;12.55;9.25;;;;;;;14.42;100.00;98464.66;8373418;28;20114;-61
2023/10/19 00:49:12;;;;;;;15.38;8.43;;;;;;;14.36;100.00;98462.00;8378204;28;20037;-58
2023/10/19 00:53:13;;;;;;;14.40;9.18;;;;;;;14.45;100.00;98464.25;8372646;28;20048;-59
2023/10/19 00:57:19;;;;;;;13.68;9.38;;;;;;;14.45;100.00;98458.81;8375620;28;20041;-59
2023/10/19 01:01:28;;;;;;;12.18;8.95;;;;;;;14.46;100.00;98465.94;8371497;28;20037;-59
2023/10/19 01:05:35;;;;;;;18.35;10.57;;;;;;;14.44;100.00;98457.13;8367673;28;20045;-58
2023/10/19 01:09:36;;;;;;;18.83;10.38;;;;;;;14.47;100.00;98467.59;8351836;28;20121;-60
2023/10/19 01:13:44;;;;;;;18.05;9.95;;;;;;;14.46;100.00;98459.66;8351626;28;20542;-60
2023/10/19 01:17:51;;;;;;;15.40;9.80;;;;;;;14.48;100.00;98471.97;8350460;28;20557;-60
2023/10/19 01:21:53;;;;;;;16.65;9.95;;;;;;;14.43;100.00;98469.06;8351083;28;20094;-60
2023/10/19 01:30:01;;;;;;;15.73;9.75;;;;;;;14.45;100.00;98464.25;8354523;28;20037;-60
2023/10/19 01:34:05;;;;;;;16.88;9.93;;;;;;;14.50;100.00;98450.84;8352348;28;20033;-61
2023/10/19 01:38:07;;;;;;;17.20;10.13;;;;;;;14.40;100.00;98445.03;8372957;28;20047;-61
2023/10/19 01:42:08;;;;;;;16.00;10.48;;;;;;;14.47;100.00;98445.84;8353063;28;20398;-61
2023/10/19 01:46:11;;;;;;;15.57;10.05;;;;;;;14.46;100.00;98449.63;8351422;28;20166;-61
2023/10/19 01:50:19;;;;;;;14.23;9.75;;;;;;;14.53;100.00;98438.69;8350987;28;20115;-64
2023/10/19 01:54:24;;;;;;;16.45;10.13;;;;;;;14.53;100.00;98435.97;8352262;28;20495;-64
2023/10/19 01:58:25;;;;;;;14.40;9.32;;;;;;;14.61;100.00;98431.09;8353445;28;20049;-64
2023/10/19 02:02:26;;;;;;;15.73;9.30;;;;;;;14.48;100.00;98431.19;8350202;28;20045;-64
2023/10/19 02:06:34;;;;;;;13.77;9.18;;;;;;;14.40;100.00;98428.72;8350000;28;20029;-64
2023/10/19 02:10:37;;;;;;;15.60;9.93;;;;;;;14.37;100.00;98431.88;8342098;28;20037;-61
2023/10/19 02:14:37;;;;;;;15.35;9.45;;;;;;;14.31;100.00;98421.88;8340393;28;20445;-61
2023/10/19 02:18:38;;;;;;;16.42;9.93;;;;;;;14.34;100.00;98418.72;8338743;28;20057;-61
2023/10/19 02:22:38;;;;;;;17.85;10.35;;;;;;;14.36;100.00;98422.03;8340099;28;20401;-61
2023/10/19 02:26:40;;;;;;;16.33;9.02;;;;;;;14.40;100.00;98417.00;8343372;28;20053;-61
2023/10/19 02:30:42;;;;;;;16.90;9.95;;;;;;;14.28;100.00;98430.44;8343637;28;20058;-63
2023/10/19 02:34:42;;;;;;;18.05;9.05;;;;;;;14.28;100.00;98421.44;8340784;28;20037;-64
2023/10/19 02:38:48;;;;;;;16.90;10.15;;;;;;;14.34;100.00;98412.44;8343591;28;20084;-64
2023/10/19 02:42:50;;;;;;;19.50;10.65;;;;;;;14.28;100.00;98408.69;8340583;28;20037;-64
2023/10/19 02:46:58;;;;;;;17.67;10.02;;;;;;;14.18;100.00;98416.41;8342855;28;20067;-60
2023/10/19 02:51:06;;;;;;;15.18;9.43;;;;;;;14.11;100.00;98402.03;8339364;28;20099;-60
2023/10/19 02:55:07;;;;;;;18.10;9.20;;;;;;;13.95;100.00;98399.78;8328218;28;20071;-60
2023/10/19 02:59:09;;;;;;;19.10;10.52;;;;;;;14.03;100.00;98393.28;8346900;28;20036;-60
2023/10/19 03:03:10;;;;;;;14.77;9.63;;;;;;;14.14;100.00;98384.47;8349778;28;20037;-60
2023/10/19 03:07:12;;;;;;;14.02;8.95;;;;;;;14.36;100.00;98389.41;8337015;28;20037;-61
2023/10/19 03:11:14;;;;;;;14.15;8.30;;;;;;;14.37;100.00;98382.09;8339560;28;20052;-64
2023/10/19 03:15:15;;;;;;;13.88;7.93;;;;;;;14.47;100.00;98380.59;8349975;28;20044;-64
2023/10/19 03:19:15;;;;;;;13.13;8.27;;;;;;;14.43;100.00;98371.22;8337870;28;20049;-64
2023/10/19 03:23:16;;;;;;;13.05;8.32;;;;;;;14.23;100.00;98370.47;8339392;28;20033;-63
2023/10/19 03:27:23;;;;;;;13.57;8.02;;;;;;;14.38;100.00;98381.03;8341306;28;20403;-64
2023/10/19 03:31:25;;;;;;;13.07;8.57;;;;;;;14.34;100.00;98374.38;8339447;28;20032;-64
2023/10/19 03:35:26;;;;;;;13.57;8.68;;;;;;;14.46;100.00;98373.50;8340214;28;20132;-64
2023/10/19 03:39:28;;;;;;;15.43;9.02;;;;;;;14.52;100.00;98372.59;8340755;28;20037;-61
2023/10/19 03:43:29;;;;;;;14.18;8.98;;;;;;;14.62;100.00;98378.41;8341657;28;20109;-61
2023/10/19 03:47:38;;;;;;;15.70;9.68;;;;;;;14.55;100.00;98372.16;8338742;28;20187;-61
2023/10/19 03:51:40;;;;;;;12.75;8.75;;;;;;;14.56;100.00;98368.41;8337443;28;20045;-60
2023/10/19 03:55:43;;;;;;;15.52;9.30;;;;;;;14.48;100.00;98352.34;8340678;28;20431;-60
2023/10/19 03:59:44;;;;;;;15.18;9.60;;;;;;;14.51;100.00;98348.34;8340252;28;20041;-61
2023/10/19 04:03:45;;;;;;;14.93;9.27;;;;;;;14.58;100.00;98344.53;8335493;28;20038;-62
2023/10/19 04:07:46;;;;;;;13.50;7.95;;;;;;;14.59;100.00;98345.38;8342550;28;20410;-62
2023/10/19 04:11:48;;;;;;;10.88;8.05;;;;;;;14.57;100.00;98339.31;8342290;28;20106;-61
2023/10/19 04:15:50;;;;;;;13.55;8.65;;;;;;;14.48;100.00;98349.63;8357101;28;20037;-61
2023/10/19 04:19:52;;;;;;;15.40;9.30;;;;;;;14.36;100.00;98347.81;8350204;28;20044;-58
2023/10/19 04:23:53;;;;;;;13.82;8.60;;;;;;;14.29;100.00;98345.13;8349578;28;20517;-59
2023/10/19 04:27:53;;;;;;;15.93;8.88;;;;;;;14.29;100.00;98347.84;8356672;28;20044;-60
2023/10/19 04:31:55;;;;;;;16.25;8.65;;;;;;;14.26;100.00;98345.56;8373844;28;20040;-65
2023/10/19 04:35:56;;;;;;;15.98;9.82;;;;;;;14.33;100.00;98340.91;8374928;28;20389;-65
2023/10/19 04:39:56;;;;;;;18.77;9.30;;;;;;;14.39;100.00;98348.22;8371570;28;20036;-61
2023/10/19 04:43:58;;;;;;;10.98;7.88;;;;;;;14.44;100.00;98348.41;8379438;28;20074;-61
2023/10/19 04:47:58;;;;;;;14.10;7.45;;;;;;;14.39;100.00;98340.06;8378384;28;20093;-61
2023/10/19 04:51:59;;;;;;;12.30;7.75;;;;;;;14.36;100.00;98339.66;8376508;28;20068;-64
2023/10/19 04:56:00;;;;;;;8.15;6.13;;;;;;;14.45;100.00;98350.06;8374610;28;20123;-65
2023/10/19 05:00:00;;;;;;;11.30;5.55;;;;;;;14.46;100.00;98346.31;8382937;28;20227;-60
2023/10/19 05:04:01;;;;;;;8.75;6.63;;;;;;;14.42;100.00;98350.50;8385978;28;20067;-58
2023/10/19 05:08:01;;;;;;;9.65;5.90;;;;;;;14.41;100.00;98354.28;8381493;28;20119;-58
2023/10/19 05:12:02;;;;;;;7.90;5.32;;;;;;;14.46;100.00;98350.91;8383584;28;20072;-64
2023/10/19 05:16:03;;;;;;;9.77;5.85;;;;;;;14.42;100.00;98345.06;8376862;28;20094;-64
2023/10/19 05:20:05;;;;;;;10.82;6.38;;;;;;;14.38;100.00;98342.97;8368347;28;20048;-65
2023/10/19 05:24:06;;;;;;;14.18;6.00;;;;;;;14.36;100.00;98329.63;8376811;28;20533;-60
2023/10/19 05:28:08;;;;;;;13.27;6.55;;;;;;;14.41;100.00;98342.56;8374773;28;20499;-61
2023/10/19 05:32:09;;;;;;;11.98;6.85;;;;;;;14.45;100.00;98336.47;8378094;28;20041;-65
2023/10/19 05:36:09;;;;;;;10.93;7.22;;;;;;;14.51;100.00;98337.47;8376032;28;20068;-64
2023/10/19 05:40:14;;;;;;;9.27;5.55;;;;;;;14.42;100.00;98328.75;8372227;28;20040;-60
2023/10/19 05:44:16;;;;;;;11.63;7.50;;;;;;;14.56;100.00;98341.22;8361352;28;20032;-60
2023/10/19 05:48:17;;;;;;;13.73;7.35;;;;;;;14.58;100.00;98341.81;8369693;28;20044;-59
2023/10/19 05:52:17;;;;;;;13.05;7.72;;;;;;;14.63;100.00;98350.16;8371645;28;20040;-62
2023/10/19 05:56:20;;;;;;;13.55;8.00;;;;;;;14.59;100.00;98348.09;8370313;28;20051;-61
2023/10/19 06:00:25;;;;;;;13.23;7.20;;;;;;;14.62;100.00;98351.22;8370349;28;20040;-61
2023/10/19 06:04:25;;;;;;;;;;;;;;;14.61;100.00;98352.25;8366494;28;20088;-61
2023/10/19 06:08:27;;;;;;;13.23;7.37;;;;;;;14.65;100.00;98360.81;8370010;28;20005;-61
2023/10/19 06:12:28;;;;;;;13.68;6.70;;;;;;;14.72;100.00;98369.75;8370257;28;20043;-61
2023/10/19 06:16:29;;;;;;;11.68;6.55;;;;;;;14.79;100.00;98373.28;8371620;28;20060;-61
2023/10/19 06:20:29;;;;;;;10.98;6.80;;;;;;;14.62;100.00;98362.09;8373742;28;20094;-60
2023/10/19 06:24:30;;;;;;;16.05;8.10;;;;;;;14.79;100.00;98389.59;8370266;28;20044;-60
2023/10/19 06:28:34;;;;;;;16.80;6.72;;;;;;;14.86;100.00;98377.63;8372698;28;20041;-60
2023/10/19 06:32:34;;;;;;;14.45;7.15;;;;;;;14.85;100.00;98367.78;8367963;28;20298;-60
2023/10/19 06:36:35;;;;;;;10.90;7.28;;;;;;;14.87;100.00;98376.56;8368648;28;20116;-60
2023/10/19 06:40:36;;;;;;;15.50;7.07;;;;;;;14.86;100.00;98374.91;8373071;28;20044;-60
2023/10/19 06:44:37;;;;;;;15.35;7.25;;;;;;;14.87;100.00;98386.59;8370711;28;20406;-61
2023/10/19 06:48:39;;;;;;;13.05;7.05;;;;;;;15.02;100.00;98390.69;8371432;28;20043;-60
2023/10/19 06:52:39;;;;;;;12.85;7.65;;;;;;;15.02;100.00;98379.81;8368837;28;20068;-65
2023/10/19 06:56:41;;;;;;;13.73;7.50;;;;;;;15.07;100.00;98385.41;8371965;28;20052;-63
2023/10/19 07:00:42;;;;;;;15.38;7.00;;;;;;;15.13;100.00;98392.69;8368678;28;20041;-61
2023/10/19 07:04:43;;;;;;;18.85;7.30;;;;;;;15.26;100.00;98391.75;8370097;28;20090;-63
2023/10/19 07:08:43;;;;;;;16.88;9.70;;;;;;;15.33;100.00;98387.09;8371640;28;20068;-63
2023/10/19 07:12:47;;;;;;;18.23;9.27;;;;;;;15.36;100.00;98376.59;8368919;28;20040;-59
2023/10/19 07:16:50;;;;;;;17.73;9.88;;;;;;;15.40;100.00;98382.47;8369787;28;20044;-59
2023/10/19 07:20:53;;;;;;;25.85;12.00;;;;;;;15.42;100.00;98392.06;8368012;28;20047;-58
2023/10/19 07:24:54;;;;;;;35.92;18.38;;;;;;;15.45;100.00;98391.63;8367421;28;20486;-63
2023/10/19 07:28:55;;;;;;;32.65;17.27;;;;;;;15.43;100.00;98401.91;8370997;28;20135;-63
2023/10/19 07:32:59;;;;;;;19.48;12.43;;;;;;;15.47;100.00;98405.00;8367513;28;20058;-64
2023/10/19 07:37:00;;;;;;;15.93;9.13;;;;;;;15.56;100.00;98396.31;8368608;28;20433;-64
2023/10/19 07:41:01;;;;;;;13.38;8.88;;;;;;;15.66;100.00;98384.94;8370202;28;20570;-64
2023/10/19 07:45:01;;;;;;;20.63;10.68;;;;;;;15.75;100.00;98391.75;8370643;28;20433;-64
2023/10/19 07:49:03;;;;;;;18.90;10.57;;;;;;;15.83;100.00;98390.63;8371462;28;20044;-64
2023/10/19 07:53:03;;;;;;;20.13;9.98;;;;;;;15.84;100.00;98395.00;8366988;28;20071;-63
2023/10/19 07:57:06;;;;;;;15.85;9.02;;;;;;;15.92;100.00;98383.81;8368806;28;20041;-64
2023/10/19 08:01:06;;;;;;;14.68;8.13;;;;;;;16.09;100.00;98387.59;8368469;28;20112;-63
2023/10/19 08:05:08;;;;;;;15.10;8.38;;;;;;;16.23;100.00;98378.19;8368051;28;20041;-58
2023/10/19 08:09:11;;;;;;;17.73;7.70;;;;;;;16.32;100.00;98366.78;8370808;28;20060;-59
2023/10/19 08:13:12;;;;;;;13.45;7.55;;;;;;;16.47;100.00;98371.84;8369461;28;20402;-61
2023/10/19 08:17:13;;;;;;;12.05;8.07;;;;;;;16.63;100.00;98369.31;8372942;28;20098;-59
2023/10/19 08:21:13;;;;;;;13.68;8.25;;;;;;;16.79;100.00;98378.72;8374626;28;20171;-60
2023/10/19 08:25:15;;;;;;;12.32;7.70;;;;;;;17.04;100.00;98376.66;8373996;28;20029;-59
2023/10/19 08:29:16;;;;;;;12.60;7.68;;;;;;;17.27;100.00;98365.78;8376028;28;20037;-59
2023/10/19 08:33:17;;;;;;;17.40;6.82;;;;;;;17.79;100.00;98358.56;8374853;28;20058;-62
2023/10/19 08:37:19;;;;;;;10.88;6.82;;;;;;;18.06;100.00;98366.03;8374119;28;20537;-63
2023/10/19 08:41:19;;;;;;;10.73;5.05;;;;;;;18.47;100.00;98363.09;8376527;28;20499;-64
2023/10/19 08:45:21;;;;;;;6.82;3.97;;;;;;;18.48;100.00;98348.34;8374669;28;20536;-59
2023/10/19 08:49:22;;;;;;;7.13;4.10;;;;;;;18.79;100.00;98361.53;8373513;28;20071;-59
2023/10/19 08:53:24;;;;;;;6.85;3.28;;;;;;;20.39;93.17;98348.72;8373305;28;20041;-61
2023/10/19 08:57:24;;;;;;;9.43;2.38;;;;;;;22.08;81.77;98334.88;8376006;28;20040;-61
2023/10/19 09:01:27;;;;;;;7.20;2.58;;;;;;;23.11;77.55;98344.88;8372236;28;20060;-61
2023/10/19 09:05:30;;;;;;;6.75;1.90;;;;;;;22.35;77.87;98332.81;8374189;28;20036;-61
2023/10/19 09:09:32;;;;;;;6.38;2.00;;;;;;;21.18;82.62;98324.06;8374418;28;20060;-59
2023/10/19 09:13:46;;;;;;;5.80;1.67;;;;;;;20.34;87.84;98321.22;8372794;28;20049;-64
2023/10/19 09:17:49;;;;;;;12.02;2.13;;;;;;;20.41;88.65;98319.13;8373331;28;20041;-64
2023/10/19 09:21:49;;;;;;;8.40;2.33;;;;;;;20.61;89.11;98322.06;8371040;28;20459;-63
2023/10/19 09:25:52;;;;;;;5.63;1.65;;;;;;;21.25;85.38;98312.84;8375713;28;20033;-60
2023/10/19 09:29:53;;;;;;;3.17;1.25;;;;;;;20.85;86.08;98312.44;8372939;28;20048;-61
2023/10/19 09:33:56;;;;;;;8.18;1.85;;;;;;;22.30;79.25;98308.03;8371347;28;20403;-61
2023/10/19 09:37:57;;;;;;;6.28;1.30;;;;;;;22.85;75.94;98310.97;8372434;28;20048;-61
2023/10/19 09:41:59;;;;;;;7.57;2.03;;;;;;;22.08;76.54;98301.84;8374517;28;20036;-61
2023/10/19 09:46:04;;;;;;;5.13;0.88;;;;;;;22.39;78.24;98306.41;8372147;28;20029;-61
2023/10/19 09:50:06;;;;;;;7.15;1.35;;;;;;;21.93;78.28;98309.22;8371867;28;20041;-61
2023/10/19 09:54:20;;;;;;;4.93;1.10;;;;;;;21.36;80.65;98303.59;8372228;28;20041;-60
2023/10/19 09:58:24;;;;;;;5.97;3.00;;;;;;;22.19;80.01;98303.56;8373250;28;20181;-59
2023/10/19 10:02:27;;;;;;;8.65;1.83;;;;;;;23.68;73.34;98311.53;8371799;28;20129;-59
2023/10/19 10:06:54;;;;;;;8.85;1.27;;;;;;;24.79;68.51;98312.81;8372642;28;20099;-59
2023/10/19 10:10:55;;;;;;;6.55;1.50;;;;;;;26.08;66.04;98304.59;8370341;28;20071;-60
2023/10/19 10:19:09;;;;;;;10.07;1.27;;;;;;;25.15;67.37;98294.09;8410319;27;20382;-58
2023/10/19 10:23:26;;;;;;;8.20;1.27;;;;;;;24.48;67.97;98289.22;8367201;28;20032;-59
2023/10/19 10:27:27;;;;;;;7.97;1.20;;;;;;;22.58;74.84;98281.97;8364180;28;20041;-58
2023/10/19 10:31:27;;;;;;;9.43;1.73;;;;;;;21.88;78.82;98290.75;8363067;28;20156;-59
2023/10/19 10:35:56;;;;;;;5.93;1.15;;;;;;;22.17;75.44;98283.72;8365126;28;20444;-58
2023/10/19 10:39:59;;;;;;;12.07;1.30;;;;;;;22.16;75.77;98287.59;8370074;28;20045;-58
2023/10/19 10:44:00;;;;;;;11.03;1.33;;;;;;;22.25;77.24;98274.13;8365468;28;20029;-57
2023/10/19 10:48:01;;;;;;;3.90;0.90;;;;;;;21.83;78.54;98273.41;8361866;28;20204;-59
2023/10/19 10:52:01;;;;;;;12.18;1.02;;;;;;;21.52;80.18;98253.09;8363964;28;20044;-58
2023/10/19 10:56:03;;;;;;;10.20;1.30;;;;;;;21.54;79.55;98255.59;8364262;28;20033;-60
2023/10/19 11:00:08;;;;;;;10.43;1.10;;;;;;;21.71;78.01;98246.06;8362440;28;20036;-61
2023/10/19 11:04:10;;;;;;;6.03;1.20;;;;;;;21.63;79.58;98249.34;8360981;28;20044;-61
2023/10/19 11:08:13;;;;;;;9.07;0.90;;;;;;;21.60;79.63;98233.38;8364509;28;20044;-61
2023/10/19 11:12:15;;;;;;;4.80;1.17;;;;;;;21.65;79.63;98230.63;8362739;28;20033;-61
2023/10/19 11:16:23;;;;;;;7.60;1.38;;;;;;;21.62;80.75;98228.41;8362617;28;20033;-61
2023/10/19 11:20:25;;;;;;;8.27;1.00;;;;;;;21.47;80.25;98227.50;8360061;28;20521;-61
2023/10/19 11:24:26;;;;;;;5.93;0.90;;;;;;;21.44;81.16;98217.88;8360513;28;20079;-61
2023/10/19 11:28:28;;;;;;;10.10;0.93;;;;;;;21.38;82.39;98221.69;8352797;28;20055;-61
2023/10/19 11:32:37;;;;;;;6.00;1.05;;;;;;;21.39;82.64;98231.59;8338299;28;20086;-61
2023/10/19 11:36:38;;;;;;;4.65;1.10;;;;;;;21.30;81.96;98230.44;8340705;28;20171;-61
2023/10/19 11:40:39;;;;;;;4.55;1.30;;;;;;;21.28;83.57;98216.94;8339681;28;20404;-61
2023/10/19 11:44:39;;;;;;;10.50;1.00;;;;;;;21.26;84.78;98221.88;8342496;28;20136;-59
2023/10/19 11:48:42;;;;;;;6.60;1.55;;;;;;;20.87;87.18;98220.47;8338302;28;20037;-58
2023/10/19 11:52:42;;;;;;;10.10;1.50;;;;;;;20.77;88.28;98211.31;8337730;28;20045;-59
2023/10/19 11:56:43;;;;;;;7.72;1.45;;;;;;;20.66;88.82;98210.41;8339365;28;20044;-60
2023/10/19 12:00:46;;;;;;;10.82;1.63;;;;;;;20.62;88.08;98200.19;8337332;28;20424;-60
2023/10/19 12:04:47;;;;;;;11.25;1.48;;;;;;;20.62;88.28;98198.25;8343787;28;20032;-61
2023/10/19 12:08:47;;;;;;;8.30;1.40;;;;;;;20.82;87.00;98216.81;8339870;28;20051;-61
2023/10/19 12:12:48;;;;;;;7.32;1.52;;;;;;;20.85;86.87;98216.31;8336186;28;20068;-61
2023/10/19 12:16:49;;;;;;;8.98;1.20;;;;;;;20.56;88.19;98206.72;8338117;28;20133;-61
2023/10/19 12:20:49;;;;;;;8.88;1.90;;;;;;;20.42;89.19;98210.97;8340371;28;20063;-61
2023/10/19 12:24:51;;;;;;;10.48;2.08;;;;;;;20.22;91.27;98208.03;8337813;28;20044;-61
2023/10/19 12:28:51;;;;;;;13.10;1.90;;;;;;;19.90;93.81;98198.84;8339608;28;20129;-61
2023/10/19 12:32:52;;;;;;;11.60;2.08;;;;;;;19.87;94.35;98202.09;8330558;28;20044;-61
2023/10/19 12:36:55;;;;;;;7.75;1.70;;;;;;;20.03;94.08;98231.38;8338993;28;20501;-63
2023/10/19 12:40:57;;;;;;;7.63;1.58;;;;;;;19.88;97.56;98225.72;8336848;28;20091;-64
2023/10/19 12:44:57;;;;;;;7.95;1.55;;;;;;;19.78;98.77;98233.78;8339316;28;20102;-61
2023/10/19 12:48:59;;;;;;;9.05;1.75;;;;;;;19.76;100.00;98236.78;8339251;28;20479;-61
2023/10/19 12:53:00;;;;;;;8.15;2.03;;;;;;;19.71;100.00;98227.69;8339219;28;20072;-61
2023/10/19 12:57:01;;;;;;;11.50;1.17;;;;;;;19.72;100.00;98237.56;8336989;28;20658;-61
2023/10/19 13:01:05;;;;;;;5.72;1.45;;;;;;;19.59;100.00;98218.75;8336712;28;20069;-61
2023/10/19 13:05:05;;;;;;;6.53;1.27;;;;;;;19.45;100.00;98224.59;8338295;28;20182;-62
2023/10/19 13:09:08;;;;;;;5.45;2.30;;;;;;;19.35;100.00;98221.72;8337276;28;20570;-62
2023/10/19 13:13:12;;;;;;;9.65;2.65;;;;;;;19.27;100.00;98211.19;8342044;28;20033;-61
2023/10/19 13:17:12;;;;;;;6.55;2.08;;;;;;;19.15;100.00;98207.69;8336650;28;20400;-62
2023/10/19 13:21:21;;;;;;;4.75;1.70;;;;;;;18.99;100.00;98203.06;8336749;28;20040;-62
2023/10/19 13:25:38;;;;;;;5.00;1.70;;;;;;;18.86;100.00;98195.22;8338166;28;20041;-61
2023/10/19 13:29:41;;;;;;;7.45;2.22;;;;;;;18.80;100.00;98188.00;8356054;28;20525;-62
2023/10/19 13:33:43;;;;;;;11.00;2.63;;;;;;;18.84;100.00;98183.66;8334781;28;20504;-62
2023/10/19 13:37:44;;;;;;;11.55;3.38;;;;;;;18.81;100.00;98177.84;8336428;28;20071;-61
2023/10/19 13:41:44;;;;;;;15.15;3.97;;;;;;;18.69;100.00;98163.41;8339733;28;20048;-61
2023/10/19 13:45:47;;;;;;;8.82;2.97;;;;;;;18.64;100.00;98156.00;8335805;28;20517;-62
2023/10/19 13:49:48;;;;;;;7.28;2.17;;;;;;;18.62;100.00;98138.97;8334576;28;20041;-62
2023/10/19 13:53:49;;;;;;;6.75;2.40;;;;;;;18.62;100.00;98130.78;8336870;28;20499;-61
2023/10/19 13:57:50;;;;;;;8.73;3.30;;;;;;;18.55;100.00;98135.59;8339767;28;20479;-61
2023/10/19 14:01:51;;;;;;;9.88;3.70;;;;;;;18.65;100.00;98133.00;8334322;28;20077;-61
2023/10/19 14:05:55;;;;;;;12.60;3.88;;;;;;;18.71;100.00;98145.69;8334880;28;20057;-62
2023/10/19 14:09:56;;;;;;;12.75;4.53;;;;;;;18.74;100.00;98145.19;8334861;28;20193;-61
2023/10/19 14:13:57;;;;;;;10.88;4.35;;;;;;;18.63;100.00;98132.41;8330950;28;20068;-61
2023/10/19 14:17:58;;;;;;;9.82;4.07;;;;;;;18.59;100.00;98114.84;8333811;28;20124;-61
2023/10/19 14:21:58;;;;;;;11.90;4.13;;;;;;;18.49;100.00;98113.84;8333446;28;20033;-60
2023/10/19 14:25:58;;;;;;;10.90;3.90;;;;;;;18.47;100.00;98100.44;8335496;28;20040;-64
2023/10/19 14:29:59;;;;;;;6.20;2.80;;;;;;;18.49;100.00;98091.97;8337418;28;20453;-64
2023/10/19 14:33:59;;;;;;;7.22;2.72;;;;;;;18.45;100.00;98079.88;8334529;28;20455;-64
2023/10/19 14:38:00;;;;;;;7.88;2.33;;;;;;;18.46;100.00;98071.41;8334773;28;20060;-60
2023/10/19 14:42:01;;;;;;;9.32;2.72;;;;;;;18.46;100.00;98060.47;8335212;28;20497;-60
2023/10/19 14:46:02;;;;;;;8.15;3.50;;;;;;;18.49;100.00;98042.72;8336394;28;20040;-61
2023/10/19 14:50:02;;;;;;;10.05;3.45;;;;;;;18.50;100.00;98039.72;8334947;28;20064;-61
2023/10/19 14:54:03;;;;;;;9.65;3.10;;;;;;;18.58;100.00;98035.72;8334159;28;20060;-60
2023/10/19 14:58:06;;;;;;;15.38;3.17;;;;;;;18.62;100.00;98020.47;8335968;28;20381;-61
2023/10/19 15:02:12;;;;;;;10.15;4.25;;;;;;;18.79;100.00;98022.06;8333774;28;20045;-59
2023/10/19 15:06:14;;;;;;;8.27;3.65;;;;;;;18.93;100.00;98020.63;8341231;28;20034;-56
2023/10/19 15:10:14;;;;;;;14.00;3.45;;;;;;;18.94;100.00;98022.25;8343278;28;20040;-57
2023/10/19 15:14:16;;;;;;;10.13;3.95;;;;;;;18.94;100.00;98025.00;8346828;28;20033;-56
2023/10/19 15:18:17;;;;;;;15.15;4.28;;;;;;;18.90;100.00;98023.03;8348192;28;20046;-57
2023/10/19 15:22:18;;;;;;;15.07;4.43;;;;;;;18.98;100.00;98030.81;8352852;28;20094;-59
2023/10/19 15:26:19;;;;;;;10.95;4.32;;;;;;;19.08;100.00;98022.72;8340403;28;20114;-59
2023/10/19 15:30:20;;;;;;;8.98;3.88;;;;;;;19.11;100.00;98020.28;8340403;28;20045;-59
2023/10/19 15:34:20;;;;;;;12.75;4.80;;;;;;;19.19;100.00;98005.31;8361560;28;20041;-60
2023/10/19 15:38:22;;;;;;;12.43;5.22;;;;;;;19.21;100.00;97990.28;8351168;28;20313;-65
2023/10/19 15:42:22;;;;;;;11.57;5.55;;;;;;;19.17;100.00;97980.09;8339616;28;20037;-64
2023/10/19 15:46:24;;;;;;;11.63;5.18;;;;;;;19.13;100.00;97968.81;8354841;28;20127;-62
2023/10/19 15:50:25;;;;;;;13.02;4.43;;;;;;;19.01;100.00;97973.63;8358235;28;20041;-64
2023/10/19 15:54:27;;;;;;;10.52;5.72;;;;;;;18.94;100.00;97977.66;8348144;28;20109;-65
2023/10/19 15:58:27;;;;;;;7.63;4.38;;;;;;;18.86;100.00;97984.41;8361773;28;20048;-61
2023/10/19 16:02:28;;;;;;;9.38;4.60;;;;;;;18.76;100.00;97978.78;8351342;28;20045;-61
2023/10/19 16:06:29;;;;;;;10.63;5.68;;;;;;;18.71;100.00;97981.47;8332159;28;20055;-62
2023/10/19 16:10:29;;;;;;;15.45;5.40;;;;;;;18.69;100.00;97980.88;8342976;28;20048;-61
2023/10/19 16:14:30;;;;;;;13.82;5.20;;;;;;;18.60;100.00;97979.66;8369182;28;20124;-61
2023/10/19 16:18:30;;;;;;;12.48;6.15;;;;;;;18.68;100.00;98000.28;8337308;28;20159;-60
2023/10/19 16:22:31;;;;;;;10.05;4.60;;;;;;;18.58;100.00;97987.31;8337449;28;20160;-60
2023/10/19 16:26:31;;;;;;;14.13;5.78;;;;;;;18.46;100.00;97983.88;8332861;28;20236;-61
2023/10/19 16:30:32;;;;;;;10.30;5.60;;;;;;;18.49;100.00;97982.53;8336486;28;20040;-60
2023/10/19 16:34:32;;;;;;;7.63;5.78;;;;;;;18.47;100.00;97995.63;8343460;28;20104;-61
2023/10/19 16:38:33;;;;;;;10.13;5.82;;;;;;;18.41;100.00;97994.72;8359386;28;20037;-61
2023/10/19 16:42:33;;;;;;;11.50;6.35;;;;;;;18.37;100.00;97985.38;8341197;28;20044;-61
2023/10/19 16:46:36;;;;;;;13.55;6.05;;;;;;;18.23;100.00;97981.28;8342932;28;20052;-61
2023/10/19 16:50:36;;;;;;;11.45;6.07;;;;;;;18.20;100.00;97968.13;8330704;28;20044;-61
2023/10/19 16:54:37;;;;;;;14.57;6.68;;;;;;;18.14;100.00;97957.38;8335955;28;20555;-61
2023/10/19 16:58:37;;;;;;;14.15;7.35;;;;;;;18.09;100.00;97944.47;8336201;28;20048;-62
2023/10/19 17:02:38;;;;;;;15.45;7.50;;;;;;;18.18;100.00;97931.16;8334229;28;20037;-62
2023/10/19 17:06:39;;;;;;;10.20;6.72;;;;;;;18.27;100.00;97943.34;8336043;28;20120;-58
2023/10/19 17:10:40;;;;;;;13.00;7.38;;;;;;;18.27;100.00;97951.53;8331903;28;20115;-57
2023/10/19 17:14:41;;;;;;;10.43;7.18;;;;;;;18.31;100.00;97958.16;8337905;28;20045;-58
2023/10/19 17:18:42;;;;;;;18.27;7.72;;;;;;;18.21;100.00;97979.91;8373793;28;20450;-60
2023/10/19 17:22:43;;;;;;;10.25;7.75;;;;;;;18.14;100.00;97974.59;8348373;28;20067;-59
2023/10/19 17:26:44;;;;;;;15.65;7.55;;;;;;;18.12;100.00;97987.72;8341646;28;20211;-61
2023/10/19 17:30:45;;;;;;;15.05;8.00;;;;;;;17.95;100.00;97981.41;8336330;28;20039;-58
2023/10/19 17:34:46;;;;;;;12.82;7.57;;;;;;;17.98;100.00;97964.50;8335787;28;20037;-60
2023/10/19 17:38:46;;;;;;;12.32;7.60;;;;;;;17.90;100.00;97966.84;8333631;28;20495;-58
2023/10/19 17:42:47;;;;;;;11.55;7.95;;;;;;;17.83;100.00;97972.47;8358964;28;20083;-59
2023/10/19 17:46:48;;;;;;;12.73;7.97;;;;;;;17.80;100.00;97959.28;8345939;28;20037;-61
2023/10/19 17:50:48;;;;;;;14.63;8.80;;;;;;;17.64;100.00;97954.66;8331892;28;20094;-61
2023/10/19 17:54:49;;;;;;;19.17;9.05;;;;;;;17.50;100.00;97954.16;8359378;28;20052;-61
2023/10/19 17:58:52;;;;;;;16.58;9.25;;;;;;;17.49;100.00;97944.31;8355370;28;20051;-61
2023/10/19 18:02:53;;;;;;;13.05;8.50;;;;;;;17.45;100.00;97931.41;8348671;28;20473;-62
2023/10/19 18:06:54;;;;;;;13.55;8.02;;;;;;;17.43;100.00;97918.00;8333747;28;20123;-60
2023/10/19 18:10:55;;;;;;;18.33;8.68;;;;;;;17.42;100.00;97926.41;8332137;28;20040;-63
2023/10/19 18:14:56;;;;;;;17.13;8.27;;;;;;;17.39;100.00;97932.34;8332063;28;20087;-61
2023/10/19 18:18:57;;;;;;;16.55;8.70;;;;;;;17.30;100.00;97928.38;8335693;28;20584;-65
2023/10/19 18:22:57;;;;;;;11.48;7.80;;;;;;;17.19;100.00;97921.06;8336659;28;20040;-65
2023/10/19 18:26:59;;;;;;;14.70;7.95;;;;;;;17.25;100.00;97931.84;8331544;28;20042;-59
2023/10/19 18:30:59;;;;;;;15.02;8.32;;;;;;;17.23;100.00;97914.06;8330952;28;20061;-59
2023/10/19 18:35:00;;;;;;;13.07;8.70;;;;;;;17.17;100.00;97909.56;8333851;28;20451;-59
2023/10/19 18:39:02;;;;;;;13.65;8.13;;;;;;;17.20;100.00;97884.50;8334926;28;20328;-59
2023/10/19 18:43:03;;;;;;;15.05;8.07;;;;;;;17.18;100.00;97892.09;8341957;28;20395;-59
2023/10/19 18:47:03;;;;;;;11.00;7.63;;;;;;;17.25;100.00;97896.34;8339847;28;20049;-59